createdAt,value
2023-04-03T00:00:34.966Z,984.78
2023-04-03T00:01:34.691Z,984.79
2023-04-03T00:02:34.657Z,984.82
2023-04-03T00:03:34.549Z,984.80
2023-04-03T00:04:34.478Z,984.81
2023-04-03T00:05:55.333Z,984.76
2023-04-03T00:06:34.278Z,984.77
2023-04-03T00:07:34.194Z,984.75
2023-04-03T00:08:34.127Z,984.79
2023-04-03T00:09:34.031Z,984.76
2023-04-03T00:10:33.976Z,984.72
2023-04-03T00:11:54.832Z,984.73
2023-04-03T00:12:33.772Z,984.73
2023-04-03T00:13:33.696Z,984.71
2023-04-03T00:14:33.606Z,984.71
2023-04-03T00:15:33.539Z,984.66
2023-04-03T00:16:33.455Z,984.68
2023-04-03T00:17:54.339Z,984.64
2023-04-03T00:18:33.277Z,984.64
2023-04-03T00:19:33.179Z,984.60
2023-04-03T00:20:33.100Z,984.66
2023-04-03T00:21:33.016Z,984.63
2023-04-03T00:22:32.927Z,984.62
2023-04-03T00:23:53.819Z,984.64
2023-04-03T00:24:32.759Z,984.61
2023-04-03T00:25:32.686Z,984.64
2023-04-03T00:26:32.601Z,984.62
2023-04-03T00:27:32.505Z,984.58
2023-04-03T00:28:32.424Z,984.59
2023-04-03T00:29:53.324Z,984.61
2023-04-03T00:30:32.260Z,984.58
2023-04-03T00:31:32.224Z,984.56
2023-04-03T00:32:32.132Z,984.57
2023-04-03T00:33:32.013Z,984.61
2023-04-03T00:34:31.932Z,984.64
2023-04-03T00:35:52.869Z,984.60
2023-04-03T00:36:31.958Z,984.56
2023-04-03T00:37:31.664Z,984.53
2023-04-03T00:38:31.576Z,984.57
2023-04-03T00:39:31.493Z,984.56
2023-04-03T00:40:31.406Z,984.57
2023-04-03T00:41:52.311Z,984.59
2023-04-03T00:42:31.243Z,984.58
2023-04-03T00:43:31.160Z,984.61
2023-04-03T00:44:31.075Z,984.63
2023-04-03T00:45:31.000Z,984.65
2023-04-03T00:46:30.961Z,984.64
2023-04-03T00:47:51.847Z,984.68
2023-04-03T00:48:30.736Z,984.69
2023-04-03T00:49:30.652Z,984.61
2023-04-03T00:50:30.569Z,984.67
2023-04-03T00:51:30.495Z,984.64
2023-04-03T00:52:30.398Z,984.67
2023-04-03T00:53:51.307Z,984.66
2023-04-03T00:54:30.232Z,984.65
2023-04-03T00:55:30.145Z,984.68
2023-04-03T00:56:30.061Z,984.70
2023-04-03T00:57:30.050Z,984.75
2023-04-03T00:58:29.890Z,984.71
2023-04-03T00:59:50.792Z,984.74
2023-04-03T01:00:29.719Z,984.70
2023-04-03T01:01:29.717Z,984.69
2023-04-03T01:02:29.577Z,984.73
2023-04-03T01:03:29.474Z,984.73
2023-04-03T01:04:29.403Z,984.70
2023-04-03T01:05:50.283Z,984.70
2023-04-03T01:06:29.218Z,984.73
2023-04-03T01:07:29.134Z,984.69
2023-04-03T01:08:29.045Z,984.69
2023-04-03T01:09:28.972Z,984.71
2023-04-03T01:10:28.879Z,984.69
2023-04-03T01:11:49.784Z,984.70
2023-04-03T01:12:28.711Z,984.73
2023-04-03T01:13:28.627Z,984.71
2023-04-03T01:14:28.550Z,984.74
2023-04-03T01:15:28.461Z,984.70
2023-04-03T01:16:28.422Z,984.74
2023-04-03T01:17:49.306Z,984.71
2023-04-03T01:18:28.211Z,984.75
2023-04-03T01:19:28.127Z,984.72
2023-04-03T01:20:28.036Z,984.73
2023-04-03T01:21:27.985Z,984.71
2023-04-03T01:22:27.862Z,984.69
2023-04-03T01:23:48.811Z,984.66
2023-04-03T01:24:27.701Z,984.65
2023-04-03T01:25:27.651Z,984.68
2023-04-03T01:26:27.531Z,984.66
2023-04-03T01:27:27.446Z,984.66
2023-04-03T01:28:27.361Z,984.64
2023-04-03T01:29:48.262Z,984.64
2023-04-03T01:30:27.220Z,984.66
2023-04-03T01:31:27.144Z,984.64
2023-04-03T01:32:27.054Z,984.63
2023-04-03T01:33:26.951Z,984.65
2023-04-03T01:34:26.865Z,984.64
2023-04-03T01:35:47.790Z,984.69
2023-04-03T01:36:26.689Z,984.66
2023-04-03T01:37:26.625Z,984.68
2023-04-03T01:38:26.526Z,984.68
2023-04-03T01:39:26.445Z,984.70
2023-04-03T01:40:26.344Z,984.65
2023-04-03T01:41:47.315Z,984.63
2023-04-03T01:42:26.186Z,984.66
2023-04-03T01:43:26.098Z,984.68
2023-04-03T01:44:26.012Z,984.67
2023-04-03T01:45:25.964Z,984.71
2023-04-03T01:46:25.852Z,984.68
2023-04-03T01:47:46.812Z,984.65
2023-04-03T01:48:25.673Z,984.69
2023-04-03T01:49:25.590Z,984.64
2023-04-03T01:50:25.511Z,984.67
2023-04-03T01:51:25.423Z,984.67
2023-04-03T01:52:25.343Z,984.65
2023-04-03T01:53:46.247Z,984.64
2023-04-03T01:54:25.161Z,984.68
2023-04-03T01:55:25.085Z,984.69
2023-04-03T01:56:25.007Z,984.66
2023-04-03T01:57:24.972Z,984.63
2023-04-03T01:58:24.831Z,984.64
2023-04-03T01:59:45.724Z,984.65
2023-04-03T02:00:24.686Z,984.65
2023-04-03T02:01:24.663Z,984.64
2023-04-03T02:02:24.501Z,984.63
2023-04-03T02:03:24.419Z,984.62
2023-04-03T02:04:24.377Z,984.62
2023-04-03T02:05:45.241Z,984.65
2023-04-03T02:06:24.186Z,984.69
2023-04-03T02:07:24.080Z,984.68
2023-04-03T02:08:23.991Z,984.68
2023-04-03T02:09:23.918Z,984.68
2023-04-03T02:10:23.833Z,984.69
2023-04-03T02:11:44.719Z,984.69
2023-04-03T02:12:23.658Z,984.70
2023-04-03T02:13:23.587Z,984.70
2023-04-03T02:14:23.533Z,984.73
2023-04-03T02:15:23.424Z,984.69
2023-04-03T02:16:23.418Z,984.73
2023-04-03T02:17:44.258Z,984.76
2023-04-03T02:18:23.147Z,984.73
2023-04-03T02:19:23.070Z,984.78
2023-04-03T02:20:22.992Z,984.78
2023-04-03T02:21:22.898Z,984.79
2023-04-03T02:22:22.804Z,984.80
2023-04-03T02:23:43.699Z,984.77
2023-04-03T02:24:22.625Z,984.79
2023-04-03T02:25:22.552Z,984.73
2023-04-03T02:26:22.467Z,984.73
2023-04-03T02:27:22.383Z,984.74
2023-04-03T02:28:22.287Z,984.73
2023-04-03T02:29:43.193Z,984.79
2023-04-03T02:30:22.120Z,984.77
2023-04-03T02:31:22.075Z,984.75
2023-04-03T02:32:21.947Z,984.75
2023-04-03T02:33:21.870Z,984.77
2023-04-03T02:34:21.785Z,984.74
2023-04-03T02:35:42.709Z,984.77
2023-04-03T02:36:21.616Z,984.75
2023-04-03T02:37:21.532Z,984.74
2023-04-03T02:38:21.446Z,984.71
2023-04-03T02:39:21.360Z,984.72
2023-04-03T02:40:21.286Z,984.72
2023-04-03T02:41:42.176Z,984.70
2023-04-03T02:42:21.126Z,984.70
2023-04-03T02:43:21.044Z,984.71
2023-04-03T02:44:20.946Z,984.70
2023-04-03T02:45:20.865Z,984.69
2023-04-03T02:46:20.779Z,984.71
2023-04-03T02:47:41.699Z,984.69
2023-04-03T02:48:20.607Z,984.72
2023-04-03T02:49:20.521Z,984.71
2023-04-03T02:50:20.450Z,984.73
2023-04-03T02:51:20.347Z,984.74
2023-04-03T02:52:20.268Z,984.75
2023-04-03T02:53:41.166Z,984.75
2023-04-03T02:54:20.098Z,984.73
2023-04-03T02:55:20.018Z,984.75
2023-04-03T02:56:19.925Z,984.79
2023-04-03T02:57:19.861Z,984.79
2023-04-03T02:58:19.761Z,984.81
2023-04-03T02:59:40.656Z,984.76
2023-04-03T03:00:19.589Z,984.75
2023-04-03T03:01:19.535Z,984.79
2023-04-03T03:02:19.416Z,984.82
2023-04-03T03:03:19.358Z,984.78
2023-04-03T03:04:19.253Z,984.78
2023-04-03T03:05:40.148Z,984.76
2023-04-03T03:06:19.118Z,984.79
2023-04-03T03:07:19.007Z,984.77
2023-04-03T03:08:18.915Z,984.77
2023-04-03T03:09:18.856Z,984.77
2023-04-03T03:10:18.739Z,984.78
2023-04-03T03:11:39.650Z,984.77
2023-04-03T03:12:18.572Z,984.79
2023-04-03T03:13:18.498Z,984.80
2023-04-03T03:14:18.405Z,984.82
2023-04-03T03:15:18.356Z,984.80
2023-04-03T03:16:18.294Z,984.82
2023-04-03T03:17:39.172Z,984.78
2023-04-03T03:18:18.075Z,984.76
2023-04-03T03:19:17.987Z,984.75
2023-04-03T03:20:17.895Z,984.76
2023-04-03T03:21:17.814Z,984.73
2023-04-03T03:22:17.729Z,984.75
2023-04-03T03:23:38.630Z,984.76
2023-04-03T03:24:17.561Z,984.72
2023-04-03T03:25:17.474Z,984.69
2023-04-03T03:26:17.398Z,984.69
2023-04-03T03:27:17.309Z,984.70
2023-04-03T03:28:17.231Z,984.70
2023-04-03T03:29:38.117Z,984.66
2023-04-03T03:30:17.048Z,984.68
2023-04-03T03:31:17.022Z,984.69
2023-04-03T03:32:16.887Z,984.73
2023-04-03T03:33:16.799Z,984.69
2023-04-03T03:34:16.728Z,984.66
2023-04-03T03:35:37.986Z,984.69
2023-04-03T03:36:16.600Z,984.64
2023-04-03T03:37:16.466Z,984.70
2023-04-03T03:38:16.375Z,984.66
2023-04-03T03:39:16.309Z,984.65
2023-04-03T03:40:16.206Z,984.70
2023-04-03T03:41:37.105Z,984.67
2023-04-03T03:42:16.027Z,984.67
2023-04-03T03:43:15.973Z,984.65
2023-04-03T03:44:16.298Z,984.69
2023-04-03T03:45:15.784Z,984.68
2023-04-03T03:46:15.733Z,984.66
2023-04-03T03:47:36.610Z,984.70
2023-04-03T03:48:15.527Z,984.68
2023-04-03T03:49:15.444Z,984.70
2023-04-03T03:50:15.353Z,984.74
2023-04-03T03:51:15.277Z,984.73
2023-04-03T03:52:15.186Z,984.75
2023-04-03T03:53:36.082Z,984.75
2023-04-03T03:54:15.016Z,984.75
2023-04-03T03:55:14.935Z,984.73
2023-04-03T03:56:14.854Z,984.72
2023-04-03T03:57:14.841Z,984.70
2023-04-03T03:58:14.682Z,984.68
2023-04-03T03:59:35.594Z,984.69
2023-04-03T04:00:14.516Z,984.72
2023-04-03T04:01:14.426Z,984.76
2023-04-03T04:02:14.401Z,984.79
2023-04-03T04:03:14.332Z,984.78
2023-04-03T04:04:14.204Z,984.77
2023-04-03T04:05:35.378Z,984.77
2023-04-03T04:06:14.017Z,984.72
2023-04-03T04:07:13.935Z,984.76
2023-04-03T04:08:13.840Z,984.75
2023-04-03T04:09:13.746Z,984.71
2023-04-03T04:10:13.663Z,984.75
2023-04-03T04:11:34.583Z,984.71
2023-04-03T04:12:13.510Z,984.76
2023-04-03T04:13:13.425Z,984.76
2023-04-03T04:14:13.331Z,984.75
2023-04-03T04:15:13.244Z,984.74
2023-04-03T04:16:13.208Z,984.77
2023-04-03T04:17:34.098Z,984.78
2023-04-03T04:18:12.982Z,984.79
2023-04-03T04:19:12.906Z,984.82
2023-04-03T04:20:12.816Z,984.80
2023-04-03T04:21:12.734Z,984.81
2023-04-03T04:22:12.660Z,984.81
2023-04-03T04:23:33.548Z,984.84
2023-04-03T04:24:12.471Z,984.79
2023-04-03T04:25:12.394Z,984.78
2023-04-03T04:26:12.317Z,984.80
2023-04-03T04:27:12.219Z,984.79
2023-04-03T04:28:12.136Z,984.79
2023-04-03T04:29:33.031Z,984.81
2023-04-03T04:30:11.981Z,984.80
2023-04-03T04:31:11.914Z,984.81
2023-04-03T04:32:11.796Z,984.78
2023-04-03T04:33:11.720Z,984.78
2023-04-03T04:34:11.633Z,984.82
2023-04-03T04:35:32.646Z,984.80
2023-04-03T04:36:11.509Z,984.82
2023-04-03T04:37:11.379Z,984.84
2023-04-03T04:38:11.292Z,984.82
2023-04-03T04:39:11.212Z,984.86
2023-04-03T04:40:11.124Z,984.86
2023-04-03T04:41:32.024Z,984.91
2023-04-03T04:42:10.954Z,984.89
2023-04-03T04:43:10.868Z,984.93
2023-04-03T04:44:10.784Z,984.91
2023-04-03T04:45:10.702Z,984.90
2023-04-03T04:46:10.656Z,984.90
2023-04-03T04:47:31.582Z,984.92
2023-04-03T04:48:10.449Z,984.94
2023-04-03T04:49:10.353Z,984.90
2023-04-03T04:50:10.286Z,984.93
2023-04-03T04:51:10.193Z,984.98
2023-04-03T04:52:10.112Z,984.96
2023-04-03T04:53:30.997Z,984.93
2023-04-03T04:54:09.937Z,984.96
2023-04-03T04:55:09.843Z,984.97
2023-04-03T04:56:09.775Z,984.99
2023-04-03T04:57:09.692Z,985.00
2023-04-03T04:58:09.593Z,985.00
2023-04-03T04:59:30.495Z,985.02
2023-04-03T05:00:09.431Z,984.99
2023-04-03T05:01:09.339Z,984.98
2023-04-03T05:02:09.300Z,984.98
2023-04-03T05:03:09.206Z,985.02
2023-04-03T05:04:09.083Z,985.03
2023-04-03T05:05:29.976Z,985.03
2023-04-03T05:06:08.919Z,985.05
2023-04-03T05:07:08.845Z,985.05
2023-04-03T05:08:08.750Z,985.04
2023-04-03T05:09:08.656Z,985.06
2023-04-03T05:10:08.583Z,985.05
2023-04-03T05:11:29.477Z,985.12
2023-04-03T05:12:08.449Z,985.08
2023-04-03T05:13:08.316Z,985.05
2023-04-03T05:14:08.238Z,985.07
2023-04-03T05:15:08.159Z,985.07
2023-04-03T05:16:08.093Z,985.06
2023-04-03T05:17:28.963Z,985.07
2023-04-03T05:18:07.933Z,985.06
2023-04-03T05:19:07.815Z,985.05
2023-04-03T05:20:07.725Z,985.04
2023-04-03T05:21:07.640Z,985.08
2023-04-03T05:22:07.561Z,985.08
2023-04-03T05:23:28.445Z,985.05
2023-04-03T05:24:07.386Z,985.10
2023-04-03T05:25:07.298Z,985.12
2023-04-03T05:26:07.224Z,985.14
2023-04-03T05:27:07.133Z,985.13
2023-04-03T05:28:07.043Z,985.10
2023-04-03T05:29:27.942Z,985.18
2023-04-03T05:30:06.879Z,985.18
2023-04-03T05:31:06.823Z,985.20
2023-04-03T05:32:06.724Z,985.23
2023-04-03T05:33:06.660Z,985.20
2023-04-03T05:34:06.535Z,985.21
2023-04-03T05:35:27.433Z,985.19
2023-04-03T05:36:06.419Z,985.20
2023-04-03T05:37:06.279Z,985.17
2023-04-03T05:38:06.201Z,985.19
2023-04-03T05:39:06.112Z,985.21
2023-04-03T05:40:06.034Z,985.22
2023-04-03T05:41:26.926Z,985.26
2023-04-03T05:42:05.853Z,985.21
2023-04-03T05:43:05.766Z,985.23
2023-04-03T05:44:05.685Z,985.27
2023-04-03T05:45:05.600Z,985.27
2023-04-03T05:46:05.548Z,985.25
2023-04-03T05:47:26.419Z,985.26
2023-04-03T05:48:05.394Z,985.26
2023-04-03T05:49:05.263Z,985.26
2023-04-03T05:50:05.176Z,985.26
2023-04-03T05:51:05.094Z,985.25
2023-04-03T05:52:04.998Z,985.28
2023-04-03T05:53:25.900Z,985.25
2023-04-03T05:54:04.837Z,985.26
2023-04-03T05:55:04.754Z,985.27
2023-04-03T05:56:04.676Z,985.28
2023-04-03T05:57:04.587Z,985.28
2023-04-03T05:58:04.521Z,985.27
2023-04-03T05:59:25.389Z,985.27
2023-04-03T06:00:04.366Z,985.28
2023-04-03T06:01:04.244Z,985.29
2023-04-03T06:02:04.165Z,985.32
2023-04-03T06:03:04.213Z,985.32
2023-04-03T06:04:04.118Z,985.32
2023-04-03T06:05:24.873Z,985.30
2023-04-03T06:06:03.872Z,985.31
2023-04-03T06:07:03.730Z,985.30
2023-04-03T06:08:03.648Z,985.31
2023-04-03T06:09:03.939Z,985.33
2023-04-03T06:10:03.490Z,985.32
2023-04-03T06:11:24.370Z,985.36
2023-04-03T06:12:03.303Z,985.37
2023-04-03T06:13:03.215Z,985.38
2023-04-03T06:14:03.147Z,985.38
2023-04-03T06:15:03.067Z,985.37
2023-04-03T06:16:02.972Z,985.37
2023-04-03T06:17:23.913Z,985.36
2023-04-03T06:18:02.838Z,985.34
2023-04-03T06:19:02.705Z,985.35
2023-04-03T06:20:02.625Z,985.38
2023-04-03T06:21:02.546Z,985.40
2023-04-03T06:22:02.482Z,985.37
2023-04-03T06:23:23.382Z,985.38
2023-04-03T06:24:02.293Z,985.39
2023-04-03T06:25:02.202Z,985.39
2023-04-03T06:26:02.120Z,985.35
2023-04-03T06:27:02.032Z,985.38
2023-04-03T06:28:01.967Z,985.43
2023-04-03T06:29:22.869Z,985.42
2023-04-03T06:30:01.789Z,985.39
2023-04-03T06:31:01.708Z,985.45
2023-04-03T06:32:01.619Z,985.46
2023-04-03T06:33:01.544Z,985.50
2023-04-03T06:34:01.437Z,985.48
2023-04-03T06:35:22.336Z,985.51
2023-04-03T06:36:01.351Z,985.50
2023-04-03T06:37:01.223Z,985.50
2023-04-03T06:38:01.117Z,985.52
2023-04-03T06:39:01.014Z,985.51
2023-04-03T06:40:00.935Z,985.53
2023-04-03T06:41:21.819Z,985.50
2023-04-03T06:42:00.767Z,985.55
2023-04-03T06:43:00.672Z,985.55
2023-04-03T06:44:00.595Z,985.55
2023-04-03T06:45:00.504Z,985.53
2023-04-03T06:46:00.458Z,985.54
2023-04-03T06:47:21.329Z,985.52
2023-04-03T06:48:00.309Z,985.54
2023-04-03T06:49:00.171Z,985.53
2023-04-03T06:50:00.107Z,985.55
2023-04-03T06:51:00.013Z,985.55
2023-04-03T06:52:02.091Z,985.56
2023-04-03T06:53:20.813Z,985.56
2023-04-03T06:53:59.748Z,985.57
2023-04-03T06:54:59.654Z,985.58
2023-04-03T06:55:59.573Z,985.60
2023-04-03T06:56:59.623Z,985.58
2023-04-03T06:57:59.403Z,985.63
2023-04-03T06:59:20.296Z,985.60
2023-04-03T06:59:59.251Z,985.60
2023-04-03T07:00:59.143Z,985.69
2023-04-03T07:01:59.098Z,985.71
2023-04-03T07:02:59.008Z,985.69
2023-04-03T07:03:59.090Z,985.65
2023-04-03T07:05:19.933Z,985.70
2023-04-03T07:05:58.747Z,985.71
2023-04-03T07:06:58.642Z,985.69
2023-04-03T07:07:58.555Z,985.73
2023-04-03T07:08:58.465Z,985.73
2023-04-03T07:09:58.391Z,985.75
2023-04-03T07:11:19.294Z,985.76
2023-04-03T07:11:58.218Z,985.80
2023-04-03T07:12:58.139Z,985.79
2023-04-03T07:13:58.047Z,985.83
2023-04-03T07:14:57.962Z,985.87
2023-04-03T07:15:57.916Z,985.81
2023-04-03T07:17:19.810Z,985.84
2023-04-03T07:17:57.737Z,985.83
2023-04-03T07:18:57.636Z,985.88
2023-04-03T07:19:57.537Z,985.87
2023-04-03T07:20:57.460Z,985.92
2023-04-03T07:21:57.371Z,985.90
2023-04-03T07:23:18.258Z,985.87
2023-04-03T07:23:57.210Z,985.91
2023-04-03T07:24:57.116Z,985.93
2023-04-03T07:25:57.031Z,985.93
2023-04-03T07:26:56.949Z,985.93
2023-04-03T07:27:56.870Z,985.92
2023-04-03T07:29:17.762Z,985.91
2023-04-03T07:29:56.691Z,985.90
2023-04-03T07:30:56.605Z,985.96
2023-04-03T07:31:56.567Z,985.94
2023-04-03T07:32:56.522Z,985.95
2023-04-03T07:33:56.363Z,985.97
2023-04-03T07:35:17.256Z,985.95
2023-04-03T07:35:56.234Z,985.97
2023-04-03T07:36:56.108Z,985.95
2023-04-03T07:37:56.016Z,985.96
2023-04-03T07:38:55.935Z,986.02
2023-04-03T07:39:55.852Z,986.02
2023-04-03T07:41:16.768Z,985.98
2023-04-03T07:41:55.685Z,985.97
2023-04-03T07:42:55.587Z,985.98
2023-04-03T07:43:55.506Z,985.95
2023-04-03T07:44:55.450Z,986.01
2023-04-03T07:45:55.390Z,986.01
2023-04-03T07:47:16.233Z,985.95
2023-04-03T07:47:55.212Z,985.95
2023-04-03T07:48:56.084Z,985.97
2023-04-03T07:49:55.000Z,985.96
2023-04-03T07:50:54.920Z,985.99
2023-04-03T07:51:54.844Z,986.02
2023-04-03T07:53:15.728Z,986.02
2023-04-03T07:53:54.682Z,986.00
2023-04-03T07:54:54.582Z,985.99
2023-04-03T07:55:54.493Z,986.05
2023-04-03T07:56:54.431Z,986.01
2023-04-03T07:57:54.340Z,986.01
2023-04-03T07:59:15.216Z,985.99
2023-04-03T07:59:54.163Z,985.99
2023-04-03T08:00:54.092Z,986.02
2023-04-03T08:01:53.986Z,986.01
2023-04-03T08:02:54.033Z,986.08
2023-04-03T08:03:53.961Z,986.06
2023-04-03T08:05:14.711Z,986.06
2023-04-03T08:05:53.648Z,986.05
2023-04-03T08:06:53.563Z,986.07
2023-04-03T08:07:53.484Z,986.10
2023-04-03T08:08:53.393Z,986.08
2023-04-03T08:09:53.320Z,986.06
2023-04-03T08:11:14.207Z,986.08
2023-04-03T08:11:53.139Z,985.98
2023-04-03T08:12:53.065Z,986.07
2023-04-03T08:13:53.651Z,986.08
2023-04-03T08:14:52.901Z,986.04
2023-04-03T08:15:52.806Z,986.03
2023-04-03T08:17:13.705Z,986.08
2023-04-03T08:17:52.630Z,986.08
2023-04-03T08:18:52.545Z,986.06
2023-04-03T08:19:52.477Z,986.11
2023-04-03T08:20:52.379Z,986.10
2023-04-03T08:21:52.309Z,986.10
2023-04-03T08:23:13.187Z,986.14
2023-04-03T08:23:52.142Z,986.13
2023-04-03T08:24:58.461Z,986.13
2023-04-03T08:25:51.968Z,986.10
2023-04-03T08:26:51.894Z,986.12
2023-04-03T08:27:51.796Z,986.13
2023-04-03T08:29:12.682Z,986.14
2023-04-03T08:29:51.625Z,986.15
2023-04-03T08:30:51.610Z,986.17
2023-04-03T08:31:51.518Z,986.18
2023-04-03T08:32:51.433Z,986.17
2023-04-03T08:33:51.289Z,986.15
2023-04-03T08:35:12.179Z,986.19
2023-04-03T08:35:51.157Z,986.17
2023-04-03T08:36:51.047Z,986.19
2023-04-03T08:37:50.955Z,986.21
2023-04-03T08:38:50.862Z,986.21
2023-04-03T08:39:50.802Z,986.17
2023-04-03T08:41:11.698Z,986.19
2023-04-03T08:41:50.616Z,986.20
2023-04-03T08:42:50.534Z,986.19
2023-04-03T08:43:50.450Z,986.21
2023-04-03T08:44:50.364Z,986.22
2023-04-03T08:45:50.317Z,986.24
2023-04-03T08:47:11.172Z,986.20
2023-04-03T08:47:51.309Z,986.26
2023-04-03T08:48:50.102Z,986.23
2023-04-03T08:49:50.002Z,986.27
2023-04-03T08:50:49.857Z,986.25
2023-04-03T08:51:49.772Z,986.23
2023-04-03T08:53:10.665Z,986.27
2023-04-03T08:53:49.609Z,986.29
2023-04-03T08:54:49.531Z,986.26
2023-04-03T08:55:49.449Z,986.24
2023-04-03T08:56:49.458Z,986.25
2023-04-03T08:57:49.276Z,986.27
2023-04-03T08:59:10.165Z,986.26
2023-04-03T08:59:49.108Z,986.29
2023-04-03T09:00:49.022Z,986.26
2023-04-03T09:01:49.047Z,986.34
2023-04-03T09:02:48.906Z,986.31
2023-04-03T09:03:48.800Z,986.34
2023-04-03T09:05:09.748Z,986.32
2023-04-03T09:05:48.612Z,986.31
2023-04-03T09:06:48.527Z,986.30
2023-04-03T09:07:49.635Z,986.32
2023-04-03T09:08:48.350Z,986.35
2023-04-03T09:09:48.271Z,986.37
2023-04-03T09:11:09.160Z,986.37
2023-04-03T09:11:48.096Z,986.31
2023-04-03T09:12:48.019Z,986.33
2023-04-03T09:13:47.934Z,986.34
2023-04-03T09:14:47.852Z,986.36
2023-04-03T09:15:47.822Z,986.35
2023-04-03T09:17:08.662Z,986.39
2023-04-03T09:17:47.610Z,986.37
2023-04-03T09:18:47.528Z,986.36
2023-04-03T09:19:47.443Z,986.35
2023-04-03T09:20:47.433Z,986.36
2023-04-03T09:21:47.262Z,986.34
2023-04-03T09:23:08.166Z,986.36
2023-04-03T09:23:47.146Z,986.35
2023-04-03T09:24:47.012Z,986.29
2023-04-03T09:25:46.929Z,986.28
2023-04-03T09:26:46.861Z,986.34
2023-04-03T09:27:46.768Z,986.34
2023-04-03T09:29:07.703Z,986.31
2023-04-03T09:29:46.596Z,986.32
2023-04-03T09:30:46.517Z,986.32
2023-04-03T09:31:46.498Z,986.29
2023-04-03T09:32:46.993Z,986.35
2023-04-03T09:33:46.261Z,986.33
2023-04-03T09:35:19.028Z,986.33
2023-04-03T09:35:48.594Z,986.28
2023-04-03T09:36:46.092Z,986.31
2023-04-03T09:37:45.936Z,986.32
2023-04-03T09:38:45.850Z,986.34
2023-04-03T09:39:45.762Z,986.31
2023-04-03T09:41:06.669Z,986.34
2023-04-03T09:41:45.604Z,986.27
2023-04-03T09:42:48.837Z,986.27
2023-04-03T09:43:45.446Z,986.27
2023-04-03T09:44:45.353Z,986.24
2023-04-03T09:45:45.267Z,986.27
2023-04-03T09:47:06.244Z,986.28
2023-04-03T09:47:45.160Z,986.29
2023-04-03T09:48:45.597Z,986.23
2023-04-03T09:49:44.941Z,986.27
2023-04-03T09:50:44.857Z,986.22
2023-04-03T09:51:44.771Z,986.29
2023-04-03T09:53:05.764Z,986.25
2023-04-03T09:53:44.608Z,986.29
2023-04-03T09:54:44.533Z,986.20
2023-04-03T09:55:44.442Z,986.27
2023-04-03T09:56:44.366Z,986.23
2023-04-03T09:57:44.281Z,986.25
2023-04-03T09:59:05.178Z,986.26
2023-04-03T09:59:44.104Z,986.26
2023-04-03T10:00:44.069Z,986.22
2023-04-03T10:01:43.945Z,986.25
2023-04-03T10:02:43.891Z,986.26
2023-04-03T10:03:43.782Z,986.27
2023-04-03T10:05:43.617Z,986.27
2023-04-03T10:06:43.539Z,986.32
2023-04-03T10:07:48.675Z,986.28
2023-04-03T10:08:43.449Z,986.24
2023-04-03T10:09:43.282Z,986.24
2023-04-03T10:11:04.188Z,986.27
2023-04-03T10:11:43.114Z,986.21
2023-04-03T10:12:43.036Z,986.19
2023-04-03T10:13:50.682Z,986.23
2023-04-03T10:14:42.877Z,986.26
2023-04-03T10:15:42.784Z,986.24
2023-04-03T10:17:03.708Z,986.23
2023-04-03T10:17:42.658Z,986.23
2023-04-03T10:18:42.538Z,986.22
2023-04-03T10:19:42.452Z,986.20
2023-04-03T10:20:42.376Z,986.18
2023-04-03T10:21:42.285Z,986.21
2023-04-03T10:23:03.189Z,986.23
2023-04-03T10:23:42.121Z,986.18
2023-04-03T10:24:42.116Z,986.23
2023-04-03T10:25:41.952Z,986.28
2023-04-03T10:26:41.872Z,986.24
2023-04-03T10:27:41.792Z,986.26
2023-04-03T10:29:02.711Z,986.25
2023-04-03T10:29:41.625Z,986.24
2023-04-03T10:30:41.678Z,986.25
2023-04-03T10:31:41.466Z,986.24
2023-04-03T10:32:41.750Z,986.22
2023-04-03T10:33:41.293Z,986.23
2023-04-03T10:35:05.116Z,986.20
2023-04-03T10:35:41.143Z,986.21
2023-04-03T10:36:41.044Z,986.21
2023-04-03T10:37:40.961Z,986.19
2023-04-03T10:38:40.877Z,986.19
2023-04-03T10:39:40.788Z,986.22
2023-04-03T10:41:01.781Z,986.22
2023-04-03T10:41:40.626Z,986.23
2023-04-03T10:42:40.544Z,986.20
2023-04-03T10:43:40.584Z,986.25
2023-04-03T10:44:40.380Z,986.21
2023-04-03T10:45:40.350Z,986.17
2023-04-03T10:47:01.201Z,986.18
2023-04-03T10:47:40.150Z,986.15
2023-04-03T10:48:40.056Z,986.11
2023-04-03T10:49:44.571Z,986.10
2023-04-03T10:50:40.162Z,986.11
2023-04-03T10:51:39.798Z,986.13
2023-04-03T10:53:00.709Z,986.06
2023-04-03T10:53:39.642Z,986.08
2023-04-03T10:54:39.560Z,986.04
2023-04-03T10:55:39.471Z,986.03
2023-04-03T10:56:39.557Z,986.05
2023-04-03T10:57:39.346Z,986.03
2023-04-03T10:59:00.217Z,986.03
2023-04-03T10:59:39.145Z,985.99
2023-04-03T11:00:39.245Z,985.99
2023-04-03T11:01:39.047Z,986.03
2023-04-03T11:02:39.022Z,985.97
2023-04-03T11:03:38.906Z,985.96
2023-04-03T11:04:59.714Z,985.92
2023-04-03T11:05:38.858Z,985.90
2023-04-03T11:06:38.576Z,985.91
2023-04-03T11:07:38.483Z,985.87
2023-04-03T11:08:38.446Z,985.93
2023-04-03T11:09:38.325Z,985.88
2023-04-03T11:10:59.219Z,985.86
2023-04-03T11:11:38.167Z,985.93
2023-04-03T11:12:38.155Z,985.86
2023-04-03T11:13:37.994Z,985.89
2023-04-03T11:14:37.913Z,985.82
2023-04-03T11:15:38.008Z,985.83
2023-04-03T11:16:58.805Z,985.87
2023-04-03T11:17:37.706Z,985.80
2023-04-03T11:18:37.581Z,985.80
2023-04-03T11:19:37.519Z,985.80
2023-04-03T11:20:37.418Z,985.80
2023-04-03T11:21:37.331Z,985.79
2023-04-03T11:22:58.231Z,985.86
2023-04-03T11:23:48.938Z,985.83
2023-04-03T11:24:37.089Z,985.82
2023-04-03T11:25:37.180Z,985.83
2023-04-03T11:26:36.941Z,985.85
2023-04-03T11:27:36.835Z,985.85
2023-04-03T11:28:57.815Z,985.83
2023-04-03T11:29:36.676Z,985.83
2023-04-03T11:30:36.596Z,985.81
2023-04-03T11:31:36.543Z,985.84
2023-04-03T11:32:36.451Z,985.88
2023-04-03T11:33:36.369Z,985.83
2023-04-03T11:34:57.245Z,985.82
2023-04-03T11:35:36.469Z,985.86
2023-04-03T11:36:36.473Z,985.81
2023-04-03T11:37:36.013Z,985.81
2023-04-03T11:38:35.933Z,985.77
2023-04-03T11:39:35.862Z,985.83
2023-04-03T11:40:56.751Z,985.87
2023-04-03T11:41:35.754Z,985.85
2023-04-03T11:42:35.690Z,985.82
2023-04-03T11:43:35.520Z,985.84
2023-04-03T11:44:35.525Z,985.80
2023-04-03T11:45:35.578Z,985.83
2023-04-03T11:46:57.655Z,985.79
2023-04-03T11:47:35.234Z,985.75
2023-04-03T11:48:35.144Z,985.76
2023-04-03T11:49:35.033Z,985.73
2023-04-03T11:50:34.949Z,985.74
2023-04-03T11:51:34.864Z,985.75
2023-04-03T11:52:55.771Z,985.74
2023-04-03T11:53:34.729Z,985.73
2023-04-03T11:54:42.189Z,985.71
2023-04-03T11:55:34.542Z,985.70
2023-04-03T11:56:34.464Z,985.68
2023-04-03T11:57:34.414Z,985.66
2023-04-03T11:58:55.268Z,985.65
2023-04-03T11:59:34.201Z,985.65
2023-04-03T12:00:34.202Z,985.59
2023-04-03T12:01:34.038Z,985.60
2023-04-03T12:02:36.324Z,985.64
2023-04-03T12:03:33.920Z,985.61
2023-04-03T12:04:54.781Z,985.57
2023-04-03T12:05:33.706Z,985.63
2023-04-03T12:06:33.638Z,985.60
2023-04-03T12:07:33.553Z,985.57
2023-04-03T12:08:33.499Z,985.55
2023-04-03T12:09:33.400Z,985.62
2023-04-03T12:10:55.069Z,985.57
2023-04-03T12:11:33.267Z,985.55
2023-04-03T12:12:33.159Z,985.53
2023-04-03T12:13:33.058Z,985.57
2023-04-03T12:14:32.982Z,985.50
2023-04-03T12:15:32.912Z,985.51
2023-04-03T12:16:53.960Z,985.50
2023-04-03T12:17:32.778Z,985.49
2023-04-03T12:18:32.660Z,985.47
2023-04-03T12:19:41.959Z,985.42
2023-04-03T12:20:32.494Z,985.41
2023-04-03T12:21:32.417Z,985.38
2023-04-03T12:22:53.316Z,985.36
2023-04-03T12:23:32.266Z,985.41
2023-04-03T12:24:32.174Z,985.42
2023-04-03T12:25:32.094Z,985.41
2023-04-03T12:26:38.450Z,985.42
2023-04-03T12:27:31.928Z,985.41
2023-04-03T12:28:52.830Z,985.35